Time;durP1;ratioP1;P1;durP2;ratioP2;P2;SDS_P1;SDS_P2;PMS_P1;PMS_P2;Temp;Humidity;BMP_temperature;BMP_pressure;BME280_temperature;BME280_humidity;BME280_pressure;Samples;Min_cycle;Max_cycle;Signal;HPM_P1;HPM_P2
2024/04/07 00:02:13;;;;;;;2.37;1.70;;;;;;;16.23;90.50;100732.41;5110010;28;20419;-69
2024/04/07 00:04:40;;;;;;;2.10;1.80;;;;;;;16.26;90.84;100734.66;5105810;28;20395;-67
2024/04/07 00:07:08;;;;;;;2.33;1.47;;;;;;;16.38;89.80;100727.25;5105172;28;20482;-68
2024/04/07 00:09:37;;;;;;;3.00;2.70;;;;;;;16.32;90.05;100723.56;5111608;28;20420;-67
2024/04/07 00:12:08;;;;;;;1.13;0.93;;;;;;;16.35;90.14;100722.28;5109510;28;20590;-67
2024/04/07 00:14:36;;;;;;;2.23;1.70;;;;;;;16.41;89.17;100722.09;5109684;28;20511;-69
2024/04/07 00:17:05;;;;;;;2.43;2.20;;;;;;;16.38;89.39;100727.25;5110361;28;20905;-68
2024/04/07 00:19:33;;;;;;;2.23;1.30;;;;;;;16.34;89.73;100720.59;5109232;28;20400;-69
2024/04/07 00:22:01;;;;;;;1.60;1.50;;;;;;;16.29;90.21;100720.50;5111418;28;20423;-69
2024/04/07 00:24:28;;;;;;;2.43;1.90;;;;;;;16.32;89.51;100720.00;5106585;28;20429;-69
2024/04/07 00:26:56;;;;;;;2.33;2.13;;;;;;;16.30;89.20;100731.19;5109637;28;20443;-68
2024/04/07 00:29:23;;;;;;;1.73;1.40;;;;;;;16.25;89.45;100728.38;5103785;28;20432;-69
2024/04/07 00:31:51;;;;;;;2.33;2.13;;;;;;;16.20;89.63;100730.16;5089858;28;20960;-70
2024/04/07 00:34:18;;;;;;;3.00;1.23;;;;;;;16.05;90.42;100717.88;5111450;28;20411;-70
2024/04/07 00:36:47;;;;;;;2.60;2.10;;;;;;;16.14;90.58;100714.75;5113472;28;20491;-72
2024/04/07 00:39:14;;;;;;;2.70;1.57;;;;;;;16.06;90.42;100719.53;5112183;28;20425;-69
2024/04/07 00:41:42;;;;;;;1.83;1.40;;;;;;;16.03;90.52;100711.81;5113544;28;20452;-68
2024/04/07 00:44:09;;;;;;;3.10;2.00;;;;;;;16.02;90.76;100712.88;5112104;28;20761;-68
2024/04/07 00:46:37;;;;;;;1.97;1.70;;;;;;;16.02;90.61;100714.81;5093806;28;20463;-70
2024/04/07 00:49:04;;;;;;;2.10;2.00;;;;;;;15.98;90.52;100713.59;5107768;28;20407;-65
2024/04/07 00:51:32;;;;;;;3.80;2.17;;;;;;;15.95;90.65;100714.94;5102826;28;20929;-69
2024/04/07 00:54:01;;;;;;;2.57;1.83;;;;;;;16.03;89.75;100709.09;5089289;28;20407;-67
2024/04/07 00:56:29;;;;;;;3.40;2.33;;;;;;;15.94;90.62;100709.72;5116090;28;20515;-69
2024/04/07 00:58:57;;;;;;;3.00;1.87;;;;;;;16.00;90.57;100704.13;5114770;28;20825;-69
2024/04/07 01:01:25;;;;;;;1.90;1.57;;;;;;;15.88;90.86;100705.22;5116190;28;21015;-67
2024/04/07 01:03:52;;;;;;;2.07;1.63;;;;;;;15.79;91.96;100698.47;5108601;28;20399;-68
2024/04/07 01:06:20;;;;;;;2.70;1.83;;;;;;;15.97;90.96;100704.63;5114319;28;20442;-68
2024/04/07 01:08:48;;;;;;;2.20;1.57;;;;;;;15.91;90.38;100705.59;5102774;28;20475;-68
2024/04/07 01:11:17;;;;;;;7.60;3.07;;;;;;;15.81;91.20;100710.00;5119491;28;20477;-70
2024/04/07 01:13:44;;;;;;;1.60;1.50;;;;;;;15.81;91.51;100702.63;5119738;28;20406;-71
2024/04/07 01:16:12;;;;;;;2.43;1.83;;;;;;;15.71;91.69;100705.16;5123199;28;20395;-70
2024/04/07 01:18:40;;;;;;;2.80;1.90;;;;;;;15.81;90.89;100708.09;5124706;28;20463;-68
2024/04/07 01:21:08;;;;;;;2.43;1.97;;;;;;;15.71;91.38;100698.84;5127373;28;20519;-70
2024/04/07 01:23:36;;;;;;;1.80;1.67;;;;;;;15.64;91.70;100693.53;5119137;28;20523;-71
2024/04/07 01:26:04;;;;;;;2.43;1.73;;;;;;;15.64;91.35;100699.81;5128545;28;20533;-71
2024/04/07 01:28:31;;;;;;;2.37;2.00;;;;;;;15.75;90.81;100694.56;5121234;28;20526;-69
2024/04/07 01:30:59;;;;;;;2.07;1.87;;;;;;;15.75;90.33;100689.94;5120189;28;20480;-70
2024/04/07 01:33:26;;;;;;;1.77;1.43;;;;;;;15.73;90.08;100686.66;5114301;28;20429;-69
2024/04/07 01:35:54;;;;;;;1.90;1.50;;;;;;;15.72;90.32;100687.72;5121728;28;20435;-70
2024/04/07 01:38:21;;;;;;;1.73;1.53;;;;;;;15.85;88.79;100692.91;5122969;28;20926;-69
2024/04/07 01:40:52;;;;;;;1.87;1.67;;;;;;;16.01;87.44;100694.88;5126463;28;20469;-70
2024/04/07 01:43:19;;;;;;;4.23;2.37;;;;;;;16.01;87.49;100678.50;5127676;28;20475;-71
2024/04/07 01:45:47;;;;;;;8.93;2.80;;;;;;;15.99;86.78;100679.78;5136828;28;20428;-72
2024/04/07 01:48:14;;;;;;;4.33;2.17;;;;;;;16.01;86.55;100677.66;5130315;28;20436;-69
2024/04/07 01:50:42;;;;;;;4.37;1.80;;;;;;;16.02;85.46;100668.41;5132217;28;20403;-70
2024/04/07 01:53:09;;;;;;;2.00;1.80;;;;;;;16.22;84.17;100662.47;5135170;28;20498;-69
2024/04/07 01:55:37;;;;;;;3.00;2.17;;;;;;;16.22;83.79;100665.22;5136782;28;20395;-69
2024/04/07 01:58:05;;;;;;;2.63;2.00;;;;;;;16.21;83.65;100653.50;5126589;28;20415;-69
2024/04/07 02:00:33;;;;;;;3.93;1.70;;;;;;;16.21;82.93;100652.66;5124043;28;20427;-69
2024/04/07 02:03:00;;;;;;;1.70;1.43;;;;;;;16.08;83.53;100657.31;5116952;28;20909;-67
2024/04/07 02:05:28;;;;;;;2.07;1.67;;;;;;;15.97;84.26;100655.50;5111329;28;20516;-68
2024/04/07 02:07:54;;;;;;;2.70;1.47;;;;;;;15.94;84.53;100655.13;5112025;28;20907;-66
2024/04/07 02:10:22;;;;;;;1.63;1.20;;;;;;;15.91;84.75;100651.00;5120253;28;20846;-70
2024/04/07 02:12:49;;;;;;;3.00;1.23;;;;;;;16.01;83.84;100651.19;5120753;28;20433;-69
2024/04/07 02:15:20;;;;;;;2.13;1.93;;;;;;;15.94;83.84;100647.78;5122759;28;20433;-68
2024/04/07 02:17:47;;;;;;;2.30;1.80;;;;;;;15.84;84.24;100642.13;5113234;28;20491;-68
2024/04/07 02:20:16;;;;;;;3.30;1.80;;;;;;;15.84;85.14;100642.13;5116861;28;20420;-69
2024/04/07 02:22:43;;;;;;;2.07;1.87;;;;;;;16.02;82.79;100641.91;5119399;28;20949;-69
2024/04/07 02:25:12;;;;;;;2.30;1.83;;;;;;;16.06;82.18;100637.66;5117908;28;20407;-68
2024/04/07 02:27:39;;;;;;;2.50;2.30;;;;;;;15.96;82.61;100640.19;5112650;28;20411;-69
2024/04/07 02:30:08;;;;;;;2.20;2.00;;;;;;;16.05;81.86;100641.44;5112976;28;20848;-68
2024/04/07 02:32:36;;;;;;;1.97;1.87;;;;;;;16.11;81.08;100638.81;5112252;28;20439;-69
2024/04/07 02:35:05;;;;;;;3.90;1.67;;;;;;;16.11;80.86;100641.53;5114623;28;20424;-70
2024/04/07 02:37:31;;;;;;;2.03;1.83;;;;;;;16.06;81.20;100643.13;5119425;28;20857;-67
2024/04/07 02:40:00;;;;;;;1.83;1.17;;;;;;;16.13;81.04;100647.56;5118710;28;20431;-68
2024/04/07 02:42:26;;;;;;;3.27;1.77;;;;;;;16.19;80.51;100635.69;5115759;28;20411;-71
2024/04/07 02:50:27;;;;;;;2.30;2.03;;;;;;;16.32;79.15;100641.66;5107423;28;20445;-69
2024/04/07 02:52:54;;;;;;;1.97;1.30;;;;;;;16.25;79.51;100643.72;5106564;28;20473;-67
2024/04/07 02:55:22;;;;;;;2.13;1.83;;;;;;;16.18;79.95;100639.47;5110318;28;20403;-67
2024/04/07 02:57:49;;;;;;;2.80;1.90;;;;;;;16.16;79.74;100641.63;5110977;28;20395;-68
2024/04/07 03:00:17;;;;;;;2.33;2.10;;;;;;;15.98;80.59;100635.28;5107402;28;20445;-68
2024/04/07 03:02:46;;;;;;;1.47;1.37;;;;;;;16.05;79.96;100636.00;5112867;28;20409;-68
2024/04/07 03:05:16;;;;;;;3.70;2.00;;;;;;;16.12;79.70;100635.03;5110573;28;20524;-68
2024/04/07 03:07:43;;;;;;;2.57;2.27;;;;;;;16.34;77.79;100630.50;5111952;28;20484;-68
2024/04/07 03:10:11;;;;;;;2.80;1.70;;;;;;;16.26;78.22;100630.91;5106827;28;20431;-68
2024/04/07 03:12:38;;;;;;;2.77;1.53;;;;;;;16.16;79.04;100630.72;5103344;28;20425;-68
2024/04/07 03:15:07;;;;;;;2.63;2.43;;;;;;;16.29;77.88;100627.69;5111799;28;20428;-69
2024/04/07 03:17:34;;;;;;;2.10;1.63;;;;;;;16.34;77.43;100627.75;5111109;28;20392;-68
2024/04/07 03:20:04;;;;;;;3.30;2.50;;;;;;;16.13;78.15;100628.47;5107265;28;20527;-70
2024/04/07 03:22:30;;;;;;;3.23;1.83;;;;;;;16.22;77.36;100629.72;5101460;28;20519;-70
2024/04/07 03:24:58;;;;;;;2.40;2.20;;;;;;;16.26;77.30;100620.81;5111445;28;20398;-68
2024/04/07 03:27:25;;;;;;;4.17;1.90;;;;;;;16.21;76.95;100628.09;5111705;28;20472;-70
2024/04/07 03:29:53;;;;;;;3.53;1.83;;;;;;;16.18;76.97;100631.28;5109016;28;20410;-69
2024/04/07 03:32:20;;;;;;;3.20;2.17;;;;;;;16.15;77.92;100629.06;5110147;28;20804;-68
2024/04/07 03:34:48;;;;;;;3.50;2.23;;;;;;;16.04;77.39;100631.59;5112131;28;20413;-68
2024/04/07 03:37:17;;;;;;;2.50;2.23;;;;;;;16.02;77.42;100631.00;5104978;28;20464;-69
2024/04/07 03:39:45;;;;;;;3.53;1.77;;;;;;;16.04;77.31;100638.94;5105311;28;20464;-69
2024/04/07 03:42:13;;;;;;;2.00;1.90;;;;;;;16.02;77.06;100635.66;5111982;28;20425;-68
2024/04/07 03:44:41;;;;;;;2.10;1.43;;;;;;;15.90;77.64;100643.88;5111651;28;20505;-68
2024/04/07 03:47:12;;;;;;;1.43;1.33;;;;;;;15.92;77.65;100640.91;5104546;28;20994;-68
2024/04/07 03:49:40;;;;;;;1.77;1.63;;;;;;;15.84;78.15;100638.56;5112081;28;20552;-68
2024/04/07 03:52:08;;;;;;;2.07;1.60;;;;;;;15.88;77.95;100634.25;5110179;28;20476;-69
2024/04/07 03:54:36;;;;;;;1.70;1.50;;;;;;;15.67;79.30;100632.22;5105391;28;20435;-68
2024/04/07 03:57:04;;;;;;;1.70;1.33;;;;;;;15.75;78.85;100629.94;5112530;28;20406;-68
2024/04/07 03:59:31;;;;;;;2.67;2.30;;;;;;;15.61;79.67;100631.28;5113166;28;20447;-68
2024/04/07 04:02:02;;;;;;;2.40;1.93;;;;;;;15.44;80.47;100633.09;5111341;28;20411;-69
2024/04/07 04:04:28;;;;;;;5.37;2.60;;;;;;;15.40;80.76;100626.44;5110719;28;20473;-69
2024/04/07 04:06:56;;;;;;;2.30;1.83;;;;;;;15.41;81.05;100628.09;5126159;28;20472;-70
2024/04/07 04:09:23;;;;;;;4.97;2.50;;;;;;;15.42;80.66;100635.22;5128471;28;20478;-69
2024/04/07 04:11:55;;;;;;;2.10;1.90;;;;;;;15.47;80.30;100627.97;5111987;28;20455;-68
2024/04/07 04:14:22;;;;;;;2.30;1.87;;;;;;;15.47;79.81;100624.41;5111125;28;20433;-70
2024/04/07 04:16:50;;;;;;;1.90;1.33;;;;;;;15.46;79.44;100620.84;5107475;28;20408;-68
2024/04/07 04:19:17;;;;;;;12.73;3.10;;;;;;;15.39;79.66;100614.72;5109384;28;20432;-69
2024/04/07 04:21:44;;;;;;;4.47;3.33;;;;;;;15.37;79.84;100626.91;5105200;28;20450;-68
2024/04/07 04:24:11;;;;;;;2.53;1.67;;;;;;;15.40;78.92;100616.34;5111319;28;20458;-67
2024/04/07 04:26:39;;;;;;;1.97;1.60;;;;;;;15.47;78.38;100618.97;5111706;28;20529;-68
2024/04/07 04:29:07;;;;;;;2.47;2.13;;;;;;;15.49;78.74;100608.66;5111186;28;20433;-65
2024/04/07 04:31:35;;;;;;;2.90;2.60;;;;;;;15.53;77.90;100598.94;5111133;28;20867;-68
2024/04/07 04:34:02;;;;;;;1.63;1.50;;;;;;;15.57;77.33;100611.03;5111188;28;20488;-68
2024/04/07 04:36:30;;;;;;;2.53;2.27;;;;;;;15.67;75.71;100605.78;5109441;28;20461;-69
2024/04/07 04:38:57;;;;;;;2.70;1.60;;;;;;;15.73;75.22;100604.81;5107748;28;20806;-67
2024/04/07 04:41:25;;;;;;;2.00;1.83;;;;;;;15.72;74.47;100597.69;5110985;28;20513;-69
2024/04/07 04:43:52;;;;;;;3.10;2.13;;;;;;;15.94;72.33;100603.28;5111973;28;20400;-67
2024/04/07 04:46:21;;;;;;;2.00;1.80;;;;;;;16.11;71.73;100601.44;5106142;28;20900;-68
2024/04/07 04:48:47;;;;;;;4.53;1.90;;;;;;;16.19;71.63;100594.72;5107081;28;20897;-67
2024/04/07 04:51:17;;;;;;;5.90;1.50;;;;;;;16.24;70.46;100589.38;5115977;28;20455;-68
2024/04/07 04:53:44;;;;;;;2.30;2.00;;;;;;;16.21;70.66;100587.97;5116717;28;20414;-70
2024/04/07 04:56:12;;;;;;;2.60;1.93;;;;;;;16.46;69.43;100595.72;5111574;28;20402;-66
2024/04/07 04:58:39;;;;;;;6.53;1.80;;;;;;;16.46;69.33;100595.72;5113495;28;20428;-68
2024/04/07 05:01:14;;;;;;;1.97;1.80;;;;;;;16.55;68.74;100591.53;5109226;28;20978;-69
2024/04/07 05:03:45;;;;;;;1.60;1.47;;;;;;;16.52;68.44;100594.75;5111907;28;20428;-68
2024/04/07 05:06:14;;;;;;;2.50;1.77;;;;;;;16.64;67.88;100590.06;5111200;28;20789;-67
2024/04/07 05:08:41;;;;;;;4.03;1.97;;;;;;;16.73;66.91;100588.56;5113157;28;20419;-69
2024/04/07 05:11:09;;;;;;;2.30;2.00;;;;;;;16.71;67.27;100589.88;5114310;28;20487;-70
2024/04/07 05:13:42;;;;;;;2.37;2.17;;;;;;;16.79;67.23;100584.84;5114816;28;20939;-71
2024/04/07 05:16:11;;;;;;;1.70;1.60;;;;;;;16.70;66.84;100589.06;5113392;28;20801;-70
2024/04/07 05:18:39;;;;;;;1.70;1.30;;;;;;;16.72;66.70;100584.19;5105084;28;20431;-70
2024/04/07 05:21:10;;;;;;;1.70;1.53;;;;;;;16.69;68.07;100575.66;5111606;28;20434;-70
2024/04/07 05:23:40;;;;;;;2.00;1.90;;;;;;;16.65;67.06;100589.00;5108543;28;20498;-69
2024/04/07 05:26:13;;;;;;;3.60;1.90;;;;;;;16.76;66.17;100579.03;5113039;28;20798;-70
2024/04/07 05:28:40;;;;;;;1.60;1.27;;;;;;;16.75;66.32;100586.41;5096161;28;20488;-69
2024/04/07 05:31:10;;;;;;;2.80;1.70;;;;;;;16.67;67.74;100577.81;5111942;28;20437;-69
2024/04/07 05:33:38;;;;;;;2.30;1.87;;;;;;;16.70;66.47;100582.78;5096829;28;20443;-69
2024/04/07 05:36:08;;;;;;;2.77;1.63;;;;;;;16.74;66.97;100584.78;5112739;28;20472;-71
2024/04/07 05:38:35;;;;;;;2.37;1.10;;;;;;;16.92;65.76;100592.69;5113101;28;20407;-68
2024/04/07 05:41:04;;;;;;;2.87;2.30;;;;;;;17.08;64.84;100601.94;5113156;28;20509;-70
2024/04/07 05:43:32;;;;;;;1.30;1.10;;;;;;;17.18;64.19;100606.72;5113418;28;20519;-69
2024/04/07 05:46:03;;;;;;;3.50;3.20;;;;;;;17.36;63.72;100620.09;5112930;28;20494;-70
2024/04/07 05:48:31;;;;;;;4.20;2.03;;;;;;;17.38;63.41;100635.16;5110975;28;20440;-69
2024/04/07 05:50:59;;;;;;;2.20;1.93;;;;;;;17.47;63.30;100634.72;5112830;28;20791;-69
2024/04/07 05:53:27;;;;;;;2.03;1.40;;;;;;;17.68;61.98;100644.88;5113020;28;20417;-70
2024/04/07 05:55:55;;;;;;;2.63;2.27;;;;;;;17.78;61.57;100645.81;5105929;28;20434;-69
2024/04/07 05:58:22;;;;;;;2.23;1.93;;;;;;;17.94;62.15;100648.75;5105492;28;20444;-69
2024/04/07 06:00:50;;;;;;;1.30;0.97;;;;;;;18.23;59.84;100658.38;5107869;28;20427;-69
2024/04/07 06:03:17;;;;;;;3.23;1.80;;;;;;;18.43;59.74;100674.19;5107083;28;20724;-69
2024/04/07 06:05:45;;;;;;;1.63;1.40;;;;;;;18.52;60.27;100672.63;5110635;28;20456;-69
2024/04/07 06:08:11;;;;;;;1.67;1.27;;;;;;;18.67;59.06;100681.84;5088637;28;20435;-69
2024/04/07 06:10:40;;;;;;;2.13;1.77;;;;;;;18.73;58.50;100687.38;5111709;28;20430;-70
2024/04/07 06:13:08;;;;;;;2.07;1.47;;;;;;;18.81;58.07;100703.34;5112125;28;20399;-69
2024/04/07 06:15:35;;;;;;;2.37;1.80;;;;;;;18.88;59.24;100712.19;5112121;28;20794;-70
2024/04/07 06:18:02;;;;;;;1.50;1.27;;;;;;;19.14;57.81;100719.53;5115121;28;20744;-70
2024/04/07 06:20:30;;;;;;;1.90;1.70;;;;;;;19.40;56.35;100724.13;5114218;28;20464;-69
2024/04/07 06:22:57;;;;;;;1.60;1.50;;;;;;;19.70;55.13;100722.66;5112021;28;20415;-70
2024/04/07 06:25:25;;;;;;;2.20;1.40;;;;;;;19.95;54.36;100720.84;5109670;28;20769;-70
2024/04/07 06:27:53;;;;;;;3.20;2.07;;;;;;;20.07;54.09;100728.88;5109716;28;20439;-69
2024/04/07 06:30:21;;;;;;;3.20;1.80;;;;;;;20.19;53.93;100732.19;5112075;28;20820;-69
2024/04/07 06:32:48;;;;;;;4.50;1.93;;;;;;;20.26;54.20;100738.28;5106507;28;20943;-71
2024/04/07 06:35:16;;;;;;;2.87;2.57;;;;;;;20.34;53.43;100729.53;5109001;28;20432;-70
2024/04/07 06:37:43;;;;;;;3.90;2.73;;;;;;;20.46;53.26;100726.56;5109832;28;20463;-68
2024/04/07 06:40:10;;;;;;;5.20;1.87;;;;;;;20.48;52.56;100726.28;5110714;28;20452;-70
2024/04/07 06:42:38;;;;;;;3.10;2.57;;;;;;;20.69;50.37;100722.47;5110853;28;20404;-70
2024/04/07 06:45:07;;;;;;;1.83;1.73;;;;;;;20.80;49.75;100718.63;5107123;28;20762;-69
2024/04/07 06:47:34;;;;;;;1.80;1.27;;;;;;;20.92;48.59;100719.19;5109122;28;20422;-68
2024/04/07 06:50:02;;;;;;;1.63;1.00;;;;;;;20.97;48.02;100732.09;5094561;28;20474;-69
2024/04/07 06:52:29;;;;;;;2.27;1.40;;;;;;;20.71;48.68;100731.28;5105958;28;20439;-69
2024/04/07 06:54:57;;;;;;;2.27;1.80;;;;;;;20.93;49.67;100733.75;5109478;28;20428;-69
2024/04/07 06:57:24;;;;;;;2.23;1.70;;;;;;;21.10;47.73;100742.59;5110051;28;21028;-69
2024/04/07 06:59:57;;;;;;;4.83;2.13;;;;;;;21.28;47.56;100735.72;5105998;28;20460;-69
2024/04/07 07:02:25;;;;;;;2.77;1.33;;;;;;;21.43;46.99;100742.03;5108523;28;20428;-68
2024/04/07 07:04:53;;;;;;;6.93;1.50;;;;;;;21.40;46.73;100747.25;5109932;28;20943;-69
2024/04/07 07:07:19;;;;;;;2.57;1.43;;;;;;;21.40;46.88;100752.75;5111673;28;20435;-68
2024/04/07 07:09:47;;;;;;;5.30;2.13;;;;;;;21.49;46.71;100748.38;5108301;28;20402;-68
2024/04/07 07:12:15;;;;;;;2.33;1.60;;;;;;;21.75;46.44;100755.44;5087326;28;20457;-69
2024/04/07 07:14:42;;;;;;;2.30;1.50;;;;;;;21.84;45.81;100759.28;5108257;28;21017;-69
2024/04/07 07:17:09;;;;;;;4.97;2.47;;;;;;;21.79;45.51;100762.03;5113557;27;20496;-69
2024/04/07 07:19:38;;;;;;;2.03;1.33;;;;;;;21.96;45.65;100768.09;5108960;28;20410;-68
2024/04/07 07:22:06;;;;;;;2.40;2.20;;;;;;;21.80;44.62;100773.88;5113082;28;21009;-69
2024/04/07 07:24:33;;;;;;;2.63;1.70;;;;;;;22.08;44.88;100778.78;5115837;28;20781;-69
2024/04/07 07:27:00;;;;;;;2.60;1.50;;;;;;;22.09;44.44;100778.50;5108632;28;20953;-68
2024/04/07 07:29:32;;;;;;;3.90;1.70;;;;;;;22.28;44.61;100780.63;5109934;28;20970;-68
2024/04/07 07:31:59;;;;;;;2.20;1.37;;;;;;;22.50;43.53;100790.19;5108425;28;20912;-70
2024/04/07 07:34:27;;;;;;;2.07;1.30;;;;;;;22.61;43.99;100790.16;5108994;28;20775;-68
2024/04/07 07:36:55;;;;;;;3.93;1.40;;;;;;;22.67;43.25;100789.81;5110856;28;20415;-69
2024/04/07 07:39:23;;;;;;;4.57;2.10;;;;;;;22.67;43.42;100784.28;5110313;28;20407;-69
2024/04/07 07:41:50;;;;;;;2.47;1.67;;;;;;;22.80;43.76;100805.75;5107386;28;20513;-68
2024/04/07 07:44:17;;;;;;;2.03;1.30;;;;;;;22.81;43.75;100812.94;5106727;28;20443;-69
2024/04/07 07:46:44;;;;;;;1.57;1.47;;;;;;;22.82;43.17;100814.59;5107666;28;20496;-69
2024/04/07 07:49:12;;;;;;;2.67;1.97;;;;;;;;;;5102110;28;20803;-69
2024/04/07 07:51:38;;;;;;;1.47;1.07;;;;;;;23.07;42.81;100816.34;5103959;28;20463;-69
2024/04/07 07:54:08;;;;;;;2.03;1.43;;;;;;;23.32;42.40;100829.16;5104409;28;20505;-68
2024/04/07 07:56:34;;;;;;;2.60;1.50;;;;;;;23.28;42.28;100817.03;5108161;28;20430;-69
2024/04/07 07:59:02;;;;;;;1.97;1.20;;;;;;;23.28;42.72;100828.06;5107215;28;20436;-68
2024/04/07 08:01:30;;;;;;;2.13;1.30;;;;;;;23.26;41.96;100827.53;5105343;28;20453;-67
2024/04/07 08:03:57;;;;;;;2.93;1.37;;;;;;;23.31;41.35;100828.31;5110237;28;20888;-67
2024/04/07 08:06:24;;;;;;;1.93;1.17;;;;;;;23.36;40.67;100841.25;5107019;28;20424;-70
2024/04/07 08:08:52;;;;;;;1.80;1.20;;;;;;;23.39;40.84;100846.19;5111454;28;20459;-68
2024/04/07 08:11:20;;;;;;;2.37;1.50;;;;;;;23.42;41.14;100845.63;5109424;28;20427;-67
2024/04/07 08:13:50;;;;;;;1.23;0.80;;;;;;;23.57;40.89;100848.31;5094667;28;20439;-67
2024/04/07 08:16:18;;;;;;;1.67;1.00;;;;;;;23.75;41.02;100850.34;5112128;28;20436;-68
2024/04/07 08:18:46;;;;;;;3.30;1.40;;;;;;;23.79;40.41;100854.16;5109707;28;20875;-68
2024/04/07 08:21:14;;;;;;;1.90;1.40;;;;;;;24.04;40.33;100868.84;5108132;28;20459;-68
2024/04/07 08:23:41;;;;;;;2.53;1.10;;;;;;;24.15;39.38;100862.09;5109951;28;20433;-67
2024/04/07 08:26:09;;;;;;;2.17;1.20;;;;;;;24.24;38.87;100863.13;5110241;28;20461;-69
2024/04/07 08:28:41;;;;;;;2.10;1.47;;;;;;;24.62;38.63;100870.41;5111479;28;20438;-67
2024/04/07 08:31:09;;;;;;;2.50;1.40;;;;;;;24.86;36.85;100875.09;5104392;28;20450;-69
2024/04/07 08:33:37;;;;;;;2.67;1.07;;;;;;;24.96;37.39;100881.34;5108679;28;20937;-67
2024/04/07 08:36:04;;;;;;;1.40;1.00;;;;;;;24.62;37.18;100875.94;5111344;28;20422;-68
2024/04/07 08:38:32;;;;;;;4.57;2.50;;;;;;;24.16;37.37;100888.59;5111669;28;20831;-67
2024/04/07 08:40:58;;;;;;;1.90;1.27;;;;;;;24.00;37.31;100879.66;5095209;28;20456;-68
2024/04/07 08:43:28;;;;;;;1.80;0.83;;;;;;;24.16;37.49;100892.22;5088454;28;20915;-67
2024/04/07 08:45:57;;;;;;;1.80;1.20;;;;;;;24.14;38.11;100899.97;5111277;28;20413;-67
2024/04/07 08:48:27;;;;;;;2.00;1.37;;;;;;;24.13;37.91;100903.03;5111181;28;20507;-68
2024/04/07 08:50:54;;;;;;;1.40;0.90;;;;;;;24.23;37.96;100909.31;5107054;28;20445;-67
2024/04/07 08:53:22;;;;;;;1.80;1.30;;;;;;;23.84;39.04;100897.50;5104475;28;20539;-68
2024/04/07 08:55:50;;;;;;;1.90;1.13;;;;;;;23.86;38.42;100894.47;5104071;28;20464;-68
2024/04/07 08:58:18;;;;;;;1.30;1.10;;;;;;;24.19;37.96;100896.38;5111376;28;20428;-68
2024/04/07 09:00:51;;;;;;;4.93;0.80;;;;;;;24.21;37.73;100917.06;5108189;28;20430;-68
2024/04/07 09:03:20;;;;;;;2.40;1.43;;;;;;;24.23;38.37;100927.84;5105531;28;20438;-69
2024/04/07 09:05:49;;;;;;;5.53;1.37;;;;;;;24.34;38.28;100918.34;5111125;28;20420;-66
2024/04/07 09:08:17;;;;;;;2.10;1.20;;;;;;;24.54;38.31;100918.13;5111092;28;20431;-67
2024/04/07 09:10:43;;;;;;;1.43;0.77;;;;;;;24.77;37.77;100915.63;5111223;28;20822;-67
2024/04/07 09:13:12;;;;;;;1.83;1.07;;;;;;;24.87;38.18;100926.59;5104674;28;20919;-69
2024/04/07 09:15:39;;;;;;;2.30;1.23;;;;;;;24.74;37.33;100943.88;5111363;28;20452;-65
2024/04/07 09:18:08;;;;;;;2.80;0.90;;;;;;;24.87;37.94;100948.72;5111235;28;20421;-67
2024/04/07 09:20:36;;;;;;;4.40;1.10;;;;;;;25.04;37.55;100935.22;5111027;28;20768;-69
2024/04/07 09:23:04;;;;;;;2.27;1.10;;;;;;;24.19;38.98;100943.38;5104413;28;20956;-71
2024/04/07 09:25:31;;;;;;;2.03;0.93;;;;;;;24.21;38.82;100941.94;5109338;28;20502;-68
2024/04/07 09:27:59;;;;;;;1.87;1.23;;;;;;;24.08;38.86;100945.38;5111294;28;20904;-66
2024/04/07 09:30:26;;;;;;;1.30;0.73;;;;;;;23.98;39.17;100942.69;5107624;28;20488;-68
2024/04/07 09:32:56;;;;;;;1.53;0.90;;;;;;;23.86;39.35;100935.91;5114954;28;20443;-68
2024/04/07 09:35:23;;;;;;;1.43;1.03;;;;;;;23.59;39.84;100945.50;5115583;28;20493;-67
2024/04/07 09:37:52;;;;;;;7.27;1.03;;;;;;;23.45;40.53;100950.03;5112294;28;20986;-68
2024/04/07 09:40:19;;;;;;;2.97;1.83;;;;;;;23.17;41.21;100942.44;5113483;28;20419;-70
2024/04/07 09:42:50;;;;;;;2.93;1.33;;;;;;;23.29;40.94;100931.84;5096343;28;20447;-70
2024/04/07 09:45:18;;;;;;;2.27;1.27;;;;;;;23.56;40.78;100940.56;5114499;28;20399;-72
2024/04/07 09:47:54;;;;;;;1.70;1.27;;;;;;;23.14;41.11;100943.03;5093971;28;20431;-70
2024/04/07 09:50:31;;;;;;;2.13;1.50;;;;;;;23.17;41.42;100947.97;5105726;28;20422;-69
2024/04/07 09:53:05;;;;;;;2.80;1.43;;;;;;;23.28;41.56;100949.56;5112647;28;20448;-70
2024/04/07 09:55:37;;;;;;;2.17;0.90;;;;;;;23.44;41.29;100961.31;5114215;28;20488;-69
2024/04/07 09:58:06;;;;;;;1.63;0.93;;;;;;;23.15;41.38;100961.22;5113108;28;20504;-70
2024/04/07 10:00:33;;;;;;;8.03;1.40;;;;;;;23.02;41.93;100967.34;5113728;28;20456;-71
2024/04/07 10:03:03;;;;;;;2.47;1.30;;;;;;;22.89;41.98;100961.34;5112385;28;20399;-70
2024/04/07 10:05:30;;;;;;;2.90;1.03;;;;;;;23.08;41.94;100966.22;5113281;28;20436;-70
2024/04/07 10:08:00;;;;;;;1.40;0.90;;;;;;;22.97;41.70;100968.19;5113261;28;20434;-69
2024/04/07 10:10:27;;;;;;;1.30;0.70;;;;;;;22.83;42.30;100972.69;5113060;28;20822;-69
2024/04/07 10:12:55;;;;;;;1.90;1.47;;;;;;;22.82;42.70;100969.09;5103811;28;20917;-69
2024/04/07 10:15:23;;;;;;;4.03;1.23;;;;;;;22.72;43.01;100974.63;5105868;28;20923;-68
2024/04/07 10:17:51;;;;;;;1.73;1.57;;;;;;;22.93;42.74;100969.88;5112300;28;20511;-69
2024/04/07 10:20:19;;;;;;;1.50;1.30;;;;;;;22.85;42.79;100979.56;5108421;28;20517;-71
2024/04/07 10:22:47;;;;;;;1.67;1.00;;;;;;;23.27;43.07;100986.56;5107899;28;20404;-68
2024/04/07 10:25:17;;;;;;;1.50;1.33;;;;;;;23.08;42.71;100993.84;5104447;28;20467;-69
2024/04/07 10:27:46;;;;;;;2.27;1.93;;;;;;;23.22;44.16;100983.81;5113455;28;20521;-68
2024/04/07 10:30:15;;;;;;;1.63;1.23;;;;;;;23.40;42.22;100991.44;5094767;28;21026;-70
2024/04/07 10:32:43;;;;;;;2.47;1.10;;;;;;;23.35;43.06;100988.72;5110110;28;20443;-69
2024/04/07 10:35:11;;;;;;;5.53;2.10;;;;;;;23.49;42.87;101002.75;5112703;28;20407;-68
2024/04/07 10:37:41;;;;;;;2.03;1.00;;;;;;;23.58;42.79;100998.25;5113170;28;20452;-70
2024/04/07 10:40:09;;;;;;;5.03;3.07;;;;;;;23.51;43.28;100997.78;5114045;28;20447;-71
2024/04/07 10:42:39;;;;;;;2.50;1.73;;;;;;;23.60;42.82;101002.41;5111999;28;20452;-69
2024/04/07 10:45:07;;;;;;;6.53;1.30;;;;;;;23.87;42.15;101010.22;5102584;28;20399;-69
2024/04/07 10:47:35;;;;;;;9.83;2.13;;;;;;;23.47;42.32;101004.97;5108694;28;20480;-69
2024/04/07 10:50:04;;;;;;;3.13;1.50;;;;;;;23.57;42.64;101025.09;5112038;28;20478;-69
2024/04/07 10:52:32;;;;;;;1.50;1.20;;;;;;;22.98;43.86;101027.81;5112725;28;20452;-69
2024/04/07 10:54:59;;;;;;;2.90;1.40;;;;;;;22.66;44.30;101030.06;5111333;28;20429;-69
2024/04/07 10:57:27;;;;;;;3.40;1.30;;;;;;;22.55;44.88;101023.75;5107685;28;20420;-70
2024/04/07 10:59:56;;;;;;;1.50;1.13;;;;;;;22.74;45.43;101029.53;5112414;28;20954;-69
2024/04/07 11:02:25;;;;;;;2.27;1.83;;;;;;;22.72;45.21;101027.06;5111116;28;20437;-69
2024/04/07 11:04:52;;;;;;;1.60;0.90;;;;;;;22.79;45.35;101019.31;5112065;28;20531;-70
2024/04/07 11:07:20;;;;;;;2.63;1.63;;;;;;;22.79;45.48;101022.09;5112704;28;20407;-67
2024/04/07 11:09:47;;;;;;;2.60;1.07;;;;;;;22.74;45.72;101021.25;5112707;28;20410;-67
2024/04/07 11:12:15;;;;;;;1.40;1.13;;;;;;;22.90;46.07;101031.97;5106754;28;20454;-68
2024/04/07 11:14:42;;;;;;;2.03;1.40;;;;;;;23.09;44.83;101039.66;5104064;28;20403;-69
2024/04/07 11:17:12;;;;;;;3.10;1.40;;;;;;;22.87;44.50;101020.66;5112456;28;20481;-70
2024/04/07 11:19:39;;;;;;;2.33;1.90;;;;;;;22.99;44.24;101029.47;5112346;28;20450;-69
2024/04/07 11:22:06;;;;;;;1.67;0.97;;;;;;;23.28;43.66;101033.22;5101839;28;20434;-69
2024/04/07 11:24:34;;;;;;;3.33;1.73;;;;;;;23.64;42.89;101033.03;5107776;28;20436;-71
2024/04/07 11:27:01;;;;;;;2.27;1.27;;;;;;;23.90;42.19;101034.53;5100428;28;20571;-69
2024/04/07 11:29:29;;;;;;;3.40;0.97;;;;;;;23.68;42.83;101043.22;5105940;28;20519;-69
2024/04/07 11:31:57;;;;;;;1.80;1.17;;;;;;;23.62;43.40;101027.81;5112016;28;20453;-69
2024/04/07 11:34:29;;;;;;;1.83;0.80;;;;;;;23.60;42.38;101038.31;5105167;28;20436;-70
2024/04/07 11:36:56;;;;;;;1.60;1.13;;;;;;;23.61;42.46;101052.97;5106790;28;20404;-68